Time,TemperatureF,DewpointF,PressureIn,WindDirection,WindDirectionDegrees,WindSpeedMPH,WindSpeedGustMPH,Humidity,HourlyPrecipIn,Conditions,Clouds,dailyrainin,SolarRadiationWatts/m^2,SoftwareType,DateUTC
2013-05-13 00:04:00,53.5,29.2,30.00,West,278,11.0,13.0,39,0.00,,,0.00,0,WeatherCatV1.15B25,2013-05-13 07:04:00,
2013-05-13 00:09:00,53.5,29.2,30.00,NW,312,10.0,14.0,39,0.00,,,0.00,0,WeatherCatV1.15B25,2013-05-13 07:09:00,
2013-05-13 00:14:00,53.6,28.6,29.99,WNW,299,12.0,14.0,38,0.00,,,0.00,0,WeatherCatV1.15B25,2013-05-13 07:14:00,
2013-05-13 00:19:00,53.8,28.8,29.99,NW,305,6.0,13.0,38,0.00,,,0.00,0,WeatherCatV1.15B25,2013-05-13 07:19:00,
2013-05-13 00:24:00,53.9,28.9,29.99,WNW,293,10.0,12.0,38,0.00,,,0.00,0,WeatherCatV1.15B25,2013-05-13 07:24:00,
2013-05-13 00:29:00,53.9,28.2,29.99,WNW,302,9.0,17.0,37,0.00,,,0.00,0,WeatherCatV1.15B25,2013-05-13 07:29:00,
2013-05-13 00:34:00,53.9,28.2,29.99,WNW,301,15.0,15.0,37,0.00,,,0.00,0,WeatherCatV1.15B25,2013-05-13 07:34:00,
2013-05-13 00:39:00,53.9,28.2,29.99,WNW,293,12.0,12.0,37,0.00,,,0.00,0,WeatherCatV1.15B25,2013-05-13 07:39:00,
2013-05-13 00:44:00,53.8,28.1,29.99,WNW,293,10.0,12.0,37,0.00,,,0.00,0,WeatherCatV1.15B25,2013-05-13 07:44:00,
2013-05-13 00:49:00,53.8,28.1,29.99,NW,305,12.0,14.0,37,0.00,,,0.00,0,WeatherCatV1.15B25,2013-05-13 07:49:00,
2013-05-13 00:54:00,53.8,28.1,29.99,WNW,303,8.0,14.0,37,0.00,,,0.00,0,WeatherCatV1.15B25,2013-05-13 07:54:00,
2013-05-13 00:59:00,53.8,28.1,29.98,WNW,288,9.0,13.0,37,0.00,,,0.00,0,WeatherCatV1.15B25,2013-05-13 07:59:00,
2013-05-13 01:04:00,53.5,28.5,29.98,NW,309,8.0,12.0,38,0.00,,,0.00,0,WeatherCatV1.15B25,2013-05-13 08:04:00,
2013-05-13 01:09:00,53.3,27.7,29.98,West,276,6.0,13.0,37,0.00,,,0.00,0,WeatherCatV1.15B25,2013-05-13 08:09:00,
2013-05-13 01:14:00,53.3,27.7,29.98,WNW,293,10.0,14.0,37,0.00,,,0.00,0,WeatherCatV1.15B25,2013-05-13 08:14:00,
2013-05-13 01:19:00,53.2,27.6,29.98,West,274,9.0,13.0,37,0.00,,,0.00,0,WeatherCatV1.15B25,2013-05-13 08:19:00,
2013-05-13 01:24:00,53.2,27.6,29.98,West,278,6.0,10.0,37,0.00,,,0.00,0,WeatherCatV1.15B25,2013-05-13 08:24:00,
2013-05-13 01:29:00,53.2,28.3,29.97,West,261,10.0,12.0,38,0.00,,,0.00,0,WeatherCatV1.15B25,2013-05-13 08:29:00,
2013-05-13 01:34:00,53.3,28.3,29.97,WNW,293,9.0,13.0,38,0.00,,,0.00,0,WeatherCatV1.15B25,2013-05-13 08:34:00,
2013-05-13 01:39:00,53.5,26.5,29.97,NW,317,10.0,16.0,35,0.00,,,0.00,0,WeatherCatV1.15B25,2013-05-13 08:39:00,
2013-05-13 01:44:00,53.6,25.2,29.95,West,279,7.0,19.0,33,0.00,,,0.00,0,WeatherCatV1.15B25,2013-05-13 08:44:00,
2013-05-13 01:49:00,53.6,26.6,29.95,WNW,283,5.0,10.0,35,0.00,,,0.00,0,WeatherCatV1.15B25,2013-05-13 08:49:00,
2013-05-13 01:54:00,53.5,26.5,29.95,WNW,283,7.0,12.0,35,0.00,,,0.00,0,WeatherCatV1.15B25,2013-05-13 08:54:00,
2013-05-13 01:59:00,53.5,26.5,29.95,West,269,6.0,10.0,35,0.00,,,0.00,0,WeatherCatV1.15B25,2013-05-13 08:59:00,
2013-05-13 02:04:00,53.3,25.7,29.95,WSW,256,6.0,10.0,34,0.00,,,0.00,0,WeatherCatV1.15B25,2013-05-13 09:04:00,
2013-05-13 02:09:00,53.3,24.9,29.95,WSW,248,4.0,10.0,33,0.00,,,0.00,0,WeatherCatV1.15B25,2013-05-13 09:09:00,
2013-05-13 02:14:00,53.3,22.7,29.96,WSW,247,12.0,12.0,30,0.00,,,0.00,0,WeatherCatV1.15B25,2013-05-13 09:14:00,
2013-05-13 02:19:00,53.8,21.5,29.96,SW,234,4.0,12.0,28,0.00,,,0.00,0,WeatherCatV1.15B25,2013-05-13 09:19:00,
2013-05-13 02:24:00,54.4,22.8,29.96,South,184,7.0,7.0,29,0.00,,,0.00,0,WeatherCatV1.15B25,2013-05-13 09:24:00,
2013-05-13 02:29:00,55.0,22.5,29.94,SSW,203,5.0,12.0,28,0.00,,,0.00,0,WeatherCatV1.15B25,2013-05-13 09:29:00,
2013-05-13 02:34:00,55.4,22.8,29.94,SW,232,5.0,9.0,28,0.00,,,0.00,0,WeatherCatV1.15B25,2013-05-13 09:34:00,
2013-05-13 02:39:00,55.7,23.1,29.94,SW,236,5.0,7.0,28,0.00,,,0.00,0,WeatherCatV1.15B25,2013-05-13 09:39:00,
2013-05-13 02:44:00,56.0,23.4,29.94,SW,235,6.0,12.0,28,0.00,,,0.00,0,WeatherCatV1.15B25,2013-05-13 09:44:00,
2013-05-13 02:49:00,56.2,22.7,29.94,WSW,241,3.0,11.0,27,0.00,,,0.00,0,WeatherCatV1.15B25,2013-05-13 09:49:00,
2013-05-13 02:54:00,56.2,22.7,29.94,West,266,6.0,11.0,27,0.00,,,0.00,0,WeatherCatV1.15B25,2013-05-13 09:54:00,
2013-05-13 02:59:00,56.2,23.5,29.94,SW,233,6.0,12.0,28,0.00,,,0.00,0,WeatherCatV1.15B25,2013-05-13 09:59:00,
2013-05-13 03:04:00,56.3,23.6,29.94,SSW,205,7.0,15.0,28,0.00,,,0.00,0,WeatherCatV1.15B25,2013-05-13 10:04:00,
2013-05-13 03:09:00,56.3,23.6,29.94,SSW,202,5.0,7.0,28,0.00,,,0.00,0,WeatherCatV1.15B25,2013-05-13 10:09:00,
2013-05-13 03:14:00,56.3,22.8,29.95,SW,232,6.0,10.0,27,0.00,,,0.00,0,WeatherCatV1.15B25,2013-05-13 10:14:00,
2013-05-13 03:19:00,56.3,22.8,29.95,WSW,247,4.0,10.0,27,0.00,,,0.00,0,WeatherCatV1.15B25,2013-05-13 10:19:00,
2013-05-13 03:24:00,56.3,22.8,29.95,SW,224,6.0,10.0,27,0.00,,,0.00,0,WeatherCatV1.15B25,2013-05-13 10:24:00,
2013-05-13 03:29:00,56.3,21.9,29.94,WSW,237,10.0,10.0,26,0.00,,,0.00,0,WeatherCatV1.15B25,2013-05-13 10:29:00,
2013-05-13 03:34:00,56.5,22.0,29.94,West,278,11.0,14.0,26,0.00,,,0.00,0,WeatherCatV1.15B25,2013-05-13 10:34:00,
2013-05-13 03:39:00,56.6,22.1,29.94,WSW,251,6.0,11.0,26,0.00,,,0.00,0,WeatherCatV1.15B25,2013-05-13 10:39:00,
2013-05-13 03:44:00,56.6,22.1,29.92,WSW,243,7.0,9.0,26,0.00,,,0.00,0,WeatherCatV1.15B25,2013-05-13 10:44:00,
2013-05-13 03:49:00,56.5,22.0,29.92,WSW,241,5.0,9.0,26,0.00,,,0.00,0,WeatherCatV1.15B25,2013-05-13 10:49:00,
2013-05-13 03:54:00,56.5,21.1,29.92,SW,227,4.0,15.0,25,0.00,,,0.00,0,WeatherCatV1.15B25,2013-05-13 10:54:00,
2013-05-13 03:59:00,56.3,21.9,29.94,WSW,239,5.0,8.0,26,0.00,,,0.00,0,WeatherCatV1.15B25,2013-05-13 10:59:00,
2013-05-13 04:04:00,56.2,21.8,29.94,West,261,6.0,12.0,26,0.00,,,0.00,0,WeatherCatV1.15B25,2013-05-13 11:04:00,
2013-05-13 04:09:00,56.2,21.8,29.94,WSW,257,7.0,9.0,26,0.00,,,0.00,0,WeatherCatV1.15B25,2013-05-13 11:09:00,
2013-05-13 04:14:00,56.2,21.8,29.94,WSW,243,6.0,11.0,26,0.00,,,0.00,0,WeatherCatV1.15B25,2013-05-13 11:14:00,
2013-05-13 04:19:00,56.3,21.9,29.94,SW,220,5.0,10.0,26,0.00,,,0.00,0,WeatherCatV1.15B25,2013-05-13 11:19:00,
2013-05-13 04:24:00,56.3,21.9,29.94,West,266,6.0,10.0,26,0.00,,,0.00,0,WeatherCatV1.15B25,2013-05-13 11:24:00,
2013-05-13 04:29:00,56.3,21.9,29.94,SW,234,6.0,7.0,26,0.00,,,0.00,0,WeatherCatV1.15B25,2013-05-13 11:29:00,
2013-05-13 04:34:00,56.3,22.8,29.94,WSW,253,7.0,8.0,27,0.00,,,0.00,0,WeatherCatV1.15B25,2013-05-13 11:34:00,
2013-05-13 04:39:00,56.2,22.7,29.94,WSW,243,6.0,13.0,27,0.00,,,0.00,0,WeatherCatV1.15B25,2013-05-13 11:39:00,
2013-05-13 04:44:00,56.2,23.5,29.94,WSW,249,4.0,10.0,28,0.00,,,0.00,0,WeatherCatV1.15B25,2013-05-13 11:44:00,
2013-05-13 04:49:00,56.0,23.4,29.94,West,270,4.0,11.0,28,0.00,,,0.00,0,WeatherCatV1.15B25,2013-05-13 11:49:00,
2013-05-13 04:54:00,56.0,23.4,29.94,WSW,252,5.0,11.0,28,0.00,,,0.00,0,WeatherCatV1.15B25,2013-05-13 11:54:00,
2013-05-13 04:59:00,56.0,22.5,29.94,West,275,9.0,13.0,27,0.00,,,0.00,0,WeatherCatV1.15B25,2013-05-13 11:59:00,
2013-05-13 05:04:00,56.0,23.4,29.94,West,274,5.0,9.0,28,0.00,,,0.00,0,WeatherCatV1.15B25,2013-05-13 12:04:00,
2013-05-13 05:09:00,55.9,23.3,29.94,West,264,6.0,14.0,28,0.00,,,0.00,0,WeatherCatV1.15B25,2013-05-13 12:09:00,
2013-05-13 05:14:00,55.9,23.3,29.96,WNW,283,6.0,11.0,28,0.00,,,0.00,0,WeatherCatV1.15B25,2013-05-13 12:14:00,
2013-05-13 05:19:00,55.9,23.3,29.96,NW,306,11.0,13.0,28,0.00,,,0.00,0,WeatherCatV1.15B25,2013-05-13 12:19:00,
2013-05-13 05:24:00,56.0,22.5,29.96,WNW,283,15.0,15.0,27,0.00,,,0.00,0,WeatherCatV1.15B25,2013-05-13 12:24:00,
2013-05-13 05:29:00,56.3,22.8,29.97,NW,305,12.0,14.0,27,0.00,,,0.00,0,WeatherCatV1.15B25,2013-05-13 12:29:00,
2013-05-13 05:34:00,56.3,21.9,29.97,West,266,5.0,13.0,26,0.00,,,0.00,0,WeatherCatV1.15B25,2013-05-13 12:34:00,
2013-05-13 05:39:00,56.3,21.9,29.97,WNW,301,7.0,11.0,26,0.00,,,0.00,0,WeatherCatV1.15B25,2013-05-13 12:39:00,
2013-05-13 05:44:00,56.3,22.8,29.97,NW,307,8.0,10.0,27,0.00,,,0.00,0,WeatherCatV1.15B25,2013-05-13 12:44:00,
2013-05-13 05:49:00,56.2,22.7,29.97,NW,308,5.0,10.0,27,0.00,,,0.00,5,WeatherCatV1.15B25,2013-05-13 12:49:00,
2013-05-13 05:54:00,56.2,22.7,29.97,WNW,298,5.0,12.0,27,0.00,,,0.00,9,WeatherCatV1.15B25,2013-05-13 12:54:00,
2013-05-13 05:59:00,56.0,22.5,29.97,WNW,299,10.0,11.0,27,0.00,,,0.00,12,WeatherCatV1.15B25,2013-05-13 12:59:00,
2013-05-13 06:04:00,56.0,22.5,29.97,NW,324,5.0,10.0,27,0.00,,,0.00,14,WeatherCatV1.15B25,2013-05-13 13:04:00,
2013-05-13 06:09:00,56.0,21.6,29.97,NW,310,6.0,14.0,26,0.00,,,0.00,18,WeatherCatV1.15B25,2013-05-13 13:09:00,
2013-05-13 06:14:00,56.0,22.5,29.99,NW,307,3.0,14.0,27,0.00,,,0.00,23,WeatherCatV1.15B25,2013-05-13 13:14:00,
2013-05-13 06:19:00,55.9,23.3,29.99,NW,322,3.0,11.0,28,0.00,,,0.00,26,WeatherCatV1.15B25,2013-05-13 13:19:00,
2013-05-13 06:24:00,55.7,23.1,29.99,NW,304,6.0,10.0,28,0.00,,,0.00,33,WeatherCatV1.15B25,2013-05-13 13:24:00,
2013-05-13 06:29:00,55.4,22.0,29.99,NNW,336,5.0,13.0,27,0.00,,,0.00,47,WeatherCatV1.15B25,2013-05-13 13:29:00,
2013-05-13 06:34:00,55.4,22.8,29.99,NW,320,5.0,11.0,28,0.00,,,0.00,62,WeatherCatV1.15B25,2013-05-13 13:34:00,
2013-05-13 06:39:00,55.3,22.8,29.99,NW,319,4.0,10.0,28,0.00,,,0.00,69,WeatherCatV1.15B25,2013-05-13 13:39:00,
2013-05-13 06:44:00,55.1,21.7,29.99,WNW,301,5.0,11.0,27,0.00,,,0.00,76,WeatherCatV1.15B25,2013-05-13 13:44:00,
2013-05-13 06:49:00,55.0,23.3,29.99,NW,326,4.0,5.0,29,0.00,,,0.00,95,WeatherCatV1.15B25,2013-05-13 13:49:00,
2013-05-13 06:54:00,54.8,23.2,29.99,WNW,300,3.0,6.0,29,0.00,,,0.00,111,WeatherCatV1.15B25,2013-05-13 13:54:00,
2013-05-13 06:59:00,54.7,23.9,30.00,NW,310,1.0,5.0,30,0.00,,,0.00,127,WeatherCatV1.15B25,2013-05-13 13:59:00,
2013-05-13 07:04:00,54.7,24.7,30.00,WNW,302,5.0,6.0,31,0.00,,,0.00,135,WeatherCatV1.15B25,2013-05-13 14:04:00,
2013-05-13 07:09:00,54.5,23.7,30.00,NNW,327,3.0,6.0,30,0.00,,,0.00,148,WeatherCatV1.15B25,2013-05-13 14:09:00,
2013-05-13 07:14:00,54.7,23.1,30.02,WNW,293,3.0,6.0,29,0.00,,,0.00,158,WeatherCatV1.15B25,2013-05-13 14:14:00,
2013-05-13 07:19:00,54.7,23.9,30.02,NW,312,9.0,9.0,30,0.00,,,0.00,181,WeatherCatV1.15B25,2013-05-13 14:19:00,
2013-05-13 07:24:00,54.8,24.0,30.02,NW,306,3.0,10.0,30,0.00,,,0.00,197,WeatherCatV1.15B25,2013-05-13 14:24:00,
2013-05-13 07:29:00,55.0,23.3,30.02,WNW,283,1.0,5.0,29,0.00,,,0.00,211,WeatherCatV1.15B25,2013-05-13 14:29:00,
2013-05-13 07:34:00,55.1,23.4,30.02,NW,310,0.0,5.0,29,0.00,,,0.00,232,WeatherCatV1.15B25,2013-05-13 14:34:00,
2013-05-13 07:39:00,55.3,24.4,30.02,NW,310,4.0,4.0,30,0.00,,,0.00,248,WeatherCatV1.15B25,2013-05-13 14:39:00,
2013-05-13 07:44:00,55.6,23.0,30.02,WNW,299,3.0,7.0,28,0.00,,,0.00,269,WeatherCatV1.15B25,2013-05-13 14:44:00,
2013-05-13 07:49:00,55.7,23.1,30.02,West,261,5.0,7.0,28,0.00,,,0.00,281,WeatherCatV1.15B25,2013-05-13 14:49:00,
2013-05-13 07:54:00,56.0,23.4,30.02,WNW,302,5.0,6.0,28,0.00,,,0.00,301,WeatherCatV1.15B25,2013-05-13 14:54:00,
2013-05-13 07:59:00,56.3,24.5,30.02,WNW,293,1.0,4.0,29,0.00,,,0.00,316,WeatherCatV1.15B25,2013-05-13 14:59:00,
2013-05-13 08:04:00,56.5,23.8,30.02,WNW,283,3.0,7.0,28,0.00,,,0.00,332,WeatherCatV1.15B25,2013-05-13 15:04:00,
2013-05-13 08:09:00,56.7,24.0,30.02,NW,312,8.0,8.0,28,0.00,,,0.00,352,WeatherCatV1.15B25,2013-05-13 15:09:00,
2013-05-13 08:14:00,56.9,23.3,30.04,West,278,5.0,11.0,27,0.00,,,0.00,367,WeatherCatV1.15B25,2013-05-13 15:14:00,
2013-05-13 08:19:00,57.0,25.1,30.04,WNW,288,5.0,7.0,29,0.00,,,0.00,385,WeatherCatV1.15B25,2013-05-13 15:19:00,
2013-05-13 08:24:00,57.2,24.4,30.04,WNW,293,5.0,6.0,28,0.00,,,0.00,397,WeatherCatV1.15B25,2013-05-13 15:24:00,
2013-05-13 08:29:00,57.5,23.8,30.02,West,275,6.0,12.0,27,0.00,,,0.00,413,WeatherCatV1.15B25,2013-05-13 15:29:00,
2013-05-13 08:34:00,57.6,23.9,30.02,WNW,288,1.0,7.0,27,0.00,,,0.00,431,WeatherCatV1.15B25,2013-05-13 15:34:00,
2013-05-13 08:39:00,57.8,27.4,30.02,WNW,283,4.0,5.0,31,0.00,,,0.00,448,WeatherCatV1.15B25,2013-05-13 15:39:00,
2013-05-13 08:44:00,58.3,25.3,30.03,WNW,288,3.0,10.0,28,0.00,,,0.00,466,WeatherCatV1.15B25,2013-05-13 15:44:00,
2013-05-13 08:49:00,58.9,25.0,30.03,SSW,212,0.0,4.0,27,0.00,,,0.00,483,WeatherCatV1.15B25,2013-05-13 15:49:00,
2013-05-13 08:54:00,59.5,25.5,30.03,West,264,2.0,8.0,27,0.00,,,0.00,497,WeatherCatV1.15B25,2013-05-13 15:54:00,
2013-05-13 08:59:00,60.1,26.9,30.02,WNW,297,3.0,6.0,28,0.00,,,0.00,512,WeatherCatV1.15B25,2013-05-13 15:59:00,
2013-05-13 09:04:00,60.2,25.2,30.02,WSW,239,3.0,12.0,26,0.00,,,0.00,526,WeatherCatV1.15B25,2013-05-13 16:04:00,
2013-05-13 09:09:00,60.7,26.5,30.02,WNW,293,1.0,7.0,27,0.00,,,0.00,543,WeatherCatV1.15B25,2013-05-13 16:09:00,
2013-05-13 09:14:00,61.0,25.9,30.02,WSW,251,1.0,6.0,26,0.00,,,0.00,559,WeatherCatV1.15B25,2013-05-13 16:14:00,
2013-05-13 09:19:00,61.2,27.8,30.02,WSW,237,3.0,7.0,28,0.00,,,0.00,571,WeatherCatV1.15B25,2013-05-13 16:19:00,
2013-05-13 09:24:00,61.3,27.0,30.02,SW,227,5.0,7.0,27,0.00,,,0.00,591,WeatherCatV1.15B25,2013-05-13 16:24:00,
2013-05-13 09:29:00,61.3,27.0,30.02,WSW,243,5.0,14.0,27,0.00,,,0.00,606,WeatherCatV1.15B25,2013-05-13 16:29:00,
2013-05-13 09:34:00,61.3,26.1,30.02,WSW,245,1.0,14.0,26,0.00,,,0.00,617,WeatherCatV1.15B25,2013-05-13 16:34:00,
2013-05-13 09:39:00,61.6,27.3,30.02,South,187,2.0,7.0,27,0.00,,,0.00,629,WeatherCatV1.15B25,2013-05-13 16:39:00,
2013-05-13 09:44:00,62.0,26.7,30.02,West,268,7.0,16.0,26,0.00,,,0.00,647,WeatherCatV1.15B25,2013-05-13 16:44:00,
2013-05-13 09:49:00,62.1,27.7,30.02,SSW,203,5.0,13.0,27,0.00,,,0.00,663,WeatherCatV1.15B25,2013-05-13 16:49:00,
2013-05-13 09:54:00,62.3,27.0,30.02,West,266,7.0,12.0,26,0.00,,,0.00,675,WeatherCatV1.15B25,2013-05-13 16:54:00,
2013-05-13 09:59:00,62.1,25.9,30.02,WNW,293,15.0,16.0,25,0.00,,,0.00,689,WeatherCatV1.15B25,2013-05-13 16:59:00,
2013-05-13 10:04:00,62.0,26.7,30.02,WNW,297,7.0,13.0,26,0.00,,,0.00,701,WeatherCatV1.15B25,2013-05-13 17:04:00,
2013-05-13 10:09:00,62.1,27.7,30.02,WSW,238,2.0,9.0,27,0.00,,,0.00,715,WeatherCatV1.15B25,2013-05-13 17:09:00,
2013-05-13 10:14:00,62.6,28.2,30.00,West,278,10.0,13.0,27,0.00,,,0.00,731,WeatherCatV1.15B25,2013-05-13 17:14:00,
2013-05-13 10:19:00,63.1,27.7,30.00,WNW,293,11.0,16.0,26,0.00,,,0.00,745,WeatherCatV1.15B25,2013-05-13 17:19:00,
2013-05-13 10:24:00,62.7,27.3,30.00,WNW,283,7.0,13.0,26,0.00,,,0.00,749,WeatherCatV1.15B25,2013-05-13 17:24:00,
2013-05-13 10:29:00,63.1,28.6,30.00,South,184,3.0,9.0,27,0.00,,,0.00,768,WeatherCatV1.15B25,2013-05-13 17:29:00,
2013-05-13 10:34:00,64.0,28.4,30.00,West,270,5.0,16.0,26,0.00,,,0.00,782,WeatherCatV1.15B25,2013-05-13 17:34:00,
2013-05-13 10:39:00,63.9,28.3,30.00,WSW,250,12.0,19.0,26,0.00,,,0.00,793,WeatherCatV1.15B25,2013-05-13 17:39:00,
2013-05-13 10:44:00,63.7,30.0,29.98,WSW,246,3.0,17.0,28,0.00,,,0.00,803,WeatherCatV1.15B25,2013-05-13 17:44:00,
2013-05-13 10:49:00,64.3,28.7,29.98,West,276,5.0,14.0,26,0.00,,,0.00,814,WeatherCatV1.15B25,2013-05-13 17:49:00,
2013-05-13 10:54:00,64.8,30.9,29.98,WNW,288,10.0,10.0,28,0.00,,,0.00,824,WeatherCatV1.15B25,2013-05-13 17:54:00,
2013-05-13 10:59:00,64.5,28.9,29.99,SW,236,13.0,20.0,26,0.00,,,0.00,837,WeatherCatV1.15B25,2013-05-13 17:59:00,
2013-05-13 11:04:00,64.2,29.5,29.99,West,270,5.0,7.0,27,0.00,,,0.00,846,WeatherCatV1.15B25,2013-05-13 18:04:00,
2013-05-13 11:09:00,64.3,28.7,29.99,West,265,6.0,21.0,26,0.00,,,0.00,856,WeatherCatV1.15B25,2013-05-13 18:09:00,
2013-05-13 11:14:00,64.7,29.9,30.00,South,187,2.0,13.0,27,0.00,,,0.00,867,WeatherCatV1.15B25,2013-05-13 18:14:00,
2013-05-13 11:19:00,65.2,29.5,30.00,WSW,246,7.0,30.0,26,0.00,,,0.00,874,WeatherCatV1.15B25,2013-05-13 18:19:00,
2013-05-13 11:24:00,64.7,27.1,30.00,West,274,9.0,16.0,24,0.00,,,0.00,886,WeatherCatV1.15B25,2013-05-13 18:24:00,
2013-05-13 11:29:00,64.3,29.6,30.00,WNW,301,9.0,16.0,27,0.00,,,0.00,891,WeatherCatV1.15B25,2013-05-13 18:29:00,
2013-05-13 11:34:00,64.5,28.9,30.00,WSW,243,6.0,11.0,26,0.00,,,0.00,900,WeatherCatV1.15B25,2013-05-13 18:34:00,
2013-05-13 11:39:00,65.2,29.5,30.00,West,278,6.0,14.0,26,0.00,,,0.00,907,WeatherCatV1.15B25,2013-05-13 18:39:00,
2013-05-13 11:44:00,65.0,28.3,30.00,WSW,247,12.0,20.0,25,0.00,,,0.00,911,WeatherCatV1.15B25,2013-05-13 18:44:00,
2013-05-13 11:49:00,65.5,28.7,30.00,WNW,283,9.0,16.0,25,0.00,,,0.00,921,WeatherCatV1.15B25,2013-05-13 18:49:00,
2013-05-13 11:54:00,65.8,28.0,30.00,SW,232,9.0,19.0,24,0.00,,,0.00,926,WeatherCatV1.15B25,2013-05-13 18:54:00,
2013-05-13 11:59:00,65.2,27.5,30.00,NW,308,16.0,25.0,24,0.00,,,0.00,937,WeatherCatV1.15B25,2013-05-13 18:59:00,
2013-05-13 12:04:00,64.7,27.1,30.00,WNW,302,14.0,20.0,24,0.00,,,0.00,942,WeatherCatV1.15B25,2013-05-13 19:04:00,
2013-05-13 12:09:00,64.3,27.7,30.00,SSW,196,10.0,25.0,25,0.00,,,0.00,942,WeatherCatV1.15B25,2013-05-13 19:09:00,
2013-05-13 12:14:00,64.2,25.6,30.00,NNW,328,14.0,15.0,23,0.00,,,0.00,925,WeatherCatV1.15B25,2013-05-13 19:14:00,
2013-05-13 12:19:00,64.5,27.9,30.00,WSW,253,18.0,19.0,25,0.00,,,0.00,951,WeatherCatV1.15B25,2013-05-13 19:19:00,
2013-05-13 12:24:00,65.2,30.4,30.00,SSW,198,9.0,17.0,27,0.00,,,0.00,962,WeatherCatV1.15B25,2013-05-13 19:24:00,
2013-05-13 12:29:00,65.6,28.8,29.97,West,264,17.0,22.0,25,0.00,,,0.00,954,WeatherCatV1.15B25,2013-05-13 19:29:00,
2013-05-13 12:34:00,65.3,29.5,29.97,West,263,21.0,21.0,26,0.00,,,0.00,969,WeatherCatV1.15B25,2013-05-13 19:34:00,
2013-05-13 12:39:00,65.2,28.5,29.97,WNW,283,7.0,21.0,25,0.00,,,0.00,875,WeatherCatV1.15B25,2013-05-13 19:39:00,
2013-05-13 12:44:00,65.3,28.6,29.99,WNW,288,6.0,16.0,25,0.00,,,0.00,979,WeatherCatV1.15B25,2013-05-13 19:44:00,
2013-05-13 12:49:00,66.0,28.2,29.99,West,259,8.0,18.0,24,0.00,,,0.00,977,WeatherCatV1.15B25,2013-05-13 19:49:00,
2013-05-13 12:54:00,66.3,28.4,29.99,WSW,254,6.0,15.0,24,0.00,,,0.00,1025,WeatherCatV1.15B25,2013-05-13 19:54:00,
2013-05-13 12:59:00,66.0,27.1,29.97,WNW,288,7.0,19.0,23,0.00,,,0.00,984,WeatherCatV1.15B25,2013-05-13 19:59:00,
2013-05-13 13:04:00,66.4,28.5,29.97,WSW,256,21.0,21.0,24,0.00,,,0.00,953,WeatherCatV1.15B25,2013-05-13 20:04:00,
2013-05-13 13:09:00,67.1,31.1,29.97,WSW,241,3.0,12.0,26,0.00,,,0.00,972,WeatherCatV1.15B25,2013-05-13 20:09:00,
2013-05-13 13:14:00,68.1,29.9,29.97,WNW,283,6.0,16.0,24,0.00,,,0.00,962,WeatherCatV1.15B25,2013-05-13 20:14:00,
2013-05-13 13:19:00,67.4,27.2,29.97,SW,232,3.0,21.0,22,0.00,,,0.00,979,WeatherCatV1.15B25,2013-05-13 20:19:00,
2013-05-13 13:24:00,66.4,27.5,29.97,SSW,212,6.0,23.0,23,0.00,,,0.00,962,WeatherCatV1.15B25,2013-05-13 20:24:00,
2013-05-13 13:29:00,66.4,27.5,29.98,NNW,332,4.0,19.0,23,0.00,,,0.00,986,WeatherCatV1.15B25,2013-05-13 20:29:00,
2013-05-13 13:34:00,65.8,28.0,29.98,West,278,8.0,21.0,24,0.00,,,0.00,1035,WeatherCatV1.15B25,2013-05-13 20:34:00,
2013-05-13 13:39:00,65.2,27.5,29.98,West,260,9.0,25.0,24,0.00,,,0.00,1067,WeatherCatV1.15B25,2013-05-13 20:39:00,
2013-05-13 13:44:00,65.2,28.5,29.98,NW,316,16.0,24.0,25,0.00,,,0.00,1037,WeatherCatV1.15B25,2013-05-13 20:44:00,
2013-05-13 13:49:00,65.5,27.8,29.98,WNW,288,13.0,13.0,24,0.00,,,0.00,1032,WeatherCatV1.15B25,2013-05-13 20:49:00,
2013-05-13 13:54:00,65.8,27.0,29.98,WNW,283,6.0,18.0,23,0.00,,,0.00,1016,WeatherCatV1.15B25,2013-05-13 20:54:00,
2013-05-13 13:59:00,65.5,28.7,29.98,West,277,18.0,18.0,25,0.00,,,0.00,997,WeatherCatV1.15B25,2013-05-13 20:59:00,
2013-05-13 14:04:00,65.3,27.6,29.98,NW,310,16.0,30.0,24,0.00,,,0.00,986,WeatherCatV1.15B25,2013-05-13 21:04:00,
2013-05-13 14:09:00,65.8,29.0,29.98,SSW,209,11.0,21.0,25,0.00,,,0.00,990,WeatherCatV1.15B25,2013-05-13 21:09:00,
2013-05-13 14:14:00,65.5,28.7,29.95,WSW,247,17.0,25.0,25,0.00,,,0.00,1020,WeatherCatV1.15B25,2013-05-13 21:14:00,
2013-05-13 14:19:00,65.8,28.0,29.95,SW,224,7.0,18.0,24,0.00,,,0.00,962,WeatherCatV1.15B25,2013-05-13 21:19:00,
2013-05-13 14:24:00,66.0,29.2,29.95,West,270,7.0,17.0,25,0.00,,,0.00,963,WeatherCatV1.15B25,2013-05-13 21:24:00,
2013-05-13 14:29:00,66.3,28.4,29.95,NW,314,14.0,20.0,24,0.00,,,0.00,951,WeatherCatV1.15B25,2013-05-13 21:29:00,
2013-05-13 14:34:00,66.4,30.5,29.95,West,265,11.0,15.0,26,0.00,,,0.00,935,WeatherCatV1.15B25,2013-05-13 21:34:00,
2013-05-13 14:39:00,66.6,29.7,29.95,West,274,6.0,18.0,25,0.00,,,0.00,940,WeatherCatV1.15B25,2013-05-13 21:39:00,
2013-05-13 14:44:00,66.6,29.7,29.94,West,274,11.0,22.0,25,0.00,,,0.00,942,WeatherCatV1.15B25,2013-05-13 21:44:00,
2013-05-13 14:49:00,66.9,29.9,29.94,WNW,297,16.0,21.0,25,0.00,,,0.00,949,WeatherCatV1.15B25,2013-05-13 21:49:00,
2013-05-13 14:54:00,66.1,30.2,29.94,WNW,283,16.0,24.0,26,0.00,,,0.00,904,WeatherCatV1.15B25,2013-05-13 21:54:00,
2013-05-13 14:59:00,66.0,29.2,29.93,West,270,14.0,25.0,25,0.00,,,0.00,895,WeatherCatV1.15B25,2013-05-13 21:59:00,
2013-05-13 15:04:00,65.8,30.0,29.93,WNW,301,18.0,22.0,26,0.00,,,0.00,888,WeatherCatV1.15B25,2013-05-13 22:04:00,
2013-05-13 15:09:00,66.8,29.8,29.93,WNW,297,14.0,21.0,25,0.00,,,0.00,969,WeatherCatV1.15B25,2013-05-13 22:09:00,
2013-05-13 15:14:00,66.6,31.6,29.93,NW,308,24.0,24.0,27,0.00,,,0.00,960,WeatherCatV1.15B25,2013-05-13 22:14:00,
2013-05-13 15:19:00,66.0,31.1,29.93,WSW,251,6.0,20.0,27,0.00,,,0.00,888,WeatherCatV1.15B25,2013-05-13 22:19:00,
2013-05-13 15:24:00,66.0,32.0,29.93,NW,322,16.0,19.0,28,0.00,,,0.00,925,WeatherCatV1.15B25,2013-05-13 22:24:00,
2013-05-13 15:29:00,65.8,30.9,29.93,NW,323,17.0,23.0,27,0.00,,,0.00,879,WeatherCatV1.15B25,2013-05-13 22:29:00,
2013-05-13 15:34:00,65.6,30.7,29.93,West,274,15.0,22.0,27,0.00,,,0.00,891,WeatherCatV1.15B25,2013-05-13 22:34:00,
2013-05-13 15:39:00,65.5,30.6,29.93,NW,308,10.0,26.0,27,0.00,,,0.00,838,WeatherCatV1.15B25,2013-05-13 22:39:00,
2013-05-13 15:44:00,65.5,31.5,29.92,West,271,5.0,12.0,28,0.00,,,0.00,824,WeatherCatV1.15B25,2013-05-13 22:44:00,
2013-05-13 15:49:00,65.8,31.8,29.92,WSW,258,6.0,14.0,28,0.00,,,0.00,821,WeatherCatV1.15B25,2013-05-13 22:49:00,
2013-05-13 15:54:00,66.0,31.1,29.92,WNW,288,4.0,12.0,27,0.00,,,0.00,807,WeatherCatV1.15B25,2013-05-13 22:54:00,
2013-05-13 15:59:00,66.0,31.1,29.92,NW,310,21.0,21.0,27,0.00,,,0.00,758,WeatherCatV1.15B25,2013-05-13 22:59:00,
2013-05-13 16:04:00,65.8,28.0,29.92,WNW,283,16.0,18.0,24,0.00,,,0.00,744,WeatherCatV1.15B25,2013-05-13 23:04:00,
2013-05-13 16:09:00,65.6,29.8,29.92,West,268,17.0,26.0,26,0.00,,,0.00,740,WeatherCatV1.15B25,2013-05-13 23:09:00,
2013-05-13 16:14:00,65.5,30.6,29.91,WNW,288,10.0,19.0,27,0.00,,,0.00,714,WeatherCatV1.15B25,2013-05-13 23:14:00,
2013-05-13 16:19:00,65.5,31.5,29.91,SW,220,3.0,18.0,28,0.00,,,0.00,698,WeatherCatV1.15B25,2013-05-13 23:19:00,
2013-05-13 16:24:00,65.6,30.7,29.91,West,268,6.0,22.0,27,0.00,,,0.00,700,WeatherCatV1.15B25,2013-05-13 23:24:00,
2013-05-13 16:29:00,65.6,31.6,29.91,WNW,298,10.0,11.0,28,0.00,,,0.00,675,WeatherCatV1.15B25,2013-05-13 23:29:00,
2013-05-13 16:34:00,66.0,31.1,29.91,WNW,288,7.0,13.0,27,0.00,,,0.00,654,WeatherCatV1.15B25,2013-05-13 23:34:00,
2013-05-13 16:39:00,65.8,30.0,29.91,NW,317,17.0,22.0,26,0.00,,,0.00,645,WeatherCatV1.15B25,2013-05-13 23:39:00,
2013-05-13 16:44:00,65.0,31.1,29.92,West,278,10.0,23.0,28,0.00,,,0.00,643,WeatherCatV1.15B25,2013-05-13 23:44:00,
2013-05-13 16:49:00,64.7,30.8,29.92,West,270,13.0,16.0,28,0.00,,,0.00,610,WeatherCatV1.15B25,2013-05-13 23:49:00,
2013-05-13 16:54:00,64.5,30.7,29.92,NW,312,14.0,14.0,28,0.00,,,0.00,592,WeatherCatV1.15B25,2013-05-13 23:54:00,
2013-05-13 16:59:00,64.5,30.7,29.92,WNW,297,7.0,17.0,28,0.00,,,0.00,580,WeatherCatV1.15B25,2013-05-13 23:59:00,
2013-05-13 17:04:00,64.7,30.8,29.92,WNW,293,6.0,19.0,28,0.00,,,0.00,559,WeatherCatV1.15B25,2013-05-14 00:04:00,
2013-05-13 17:09:00,65.0,31.1,29.92,West,262,8.0,21.0,28,0.00,,,0.00,548,WeatherCatV1.15B25,2013-05-14 00:09:00,
2013-05-13 17:14:00,64.8,30.0,29.91,NW,307,19.0,19.0,27,0.00,,,0.00,533,WeatherCatV1.15B25,2013-05-14 00:14:00,
2013-05-13 17:19:00,64.5,29.8,29.91,WNW,293,17.0,21.0,27,0.00,,,0.00,515,WeatherCatV1.15B25,2013-05-14 00:19:00,
2013-05-13 17:24:00,64.3,29.6,29.91,West,266,9.0,19.0,27,0.00,,,0.00,454,WeatherCatV1.15B25,2013-05-14 00:24:00,
2013-05-13 17:29:00,64.8,30.0,29.91,NW,310,8.0,15.0,27,0.00,,,0.00,448,WeatherCatV1.15B25,2013-05-14 00:29:00,
2013-05-13 17:34:00,64.8,30.0,29.91,WNW,293,10.0,15.0,27,0.00,,,0.00,408,WeatherCatV1.15B25,2013-05-14 00:34:00,
2013-05-13 17:39:00,64.5,29.8,29.91,NW,320,14.0,16.0,27,0.00,,,0.00,408,WeatherCatV1.15B25,2013-05-14 00:39:00,
2013-05-13 17:44:00,64.3,30.5,29.91,WSW,257,6.0,17.0,28,0.00,,,0.00,352,WeatherCatV1.15B25,2013-05-14 00:44:00,
2013-05-13 17:49:00,64.2,29.5,29.91,NW,313,8.0,16.0,27,0.00,,,0.00,348,WeatherCatV1.15B25,2013-05-14 00:49:00,
2013-05-13 17:54:00,63.7,29.1,29.91,WSW,244,12.0,20.0,27,0.00,,,0.00,401,WeatherCatV1.15B25,2013-05-14 00:54:00,
2013-05-13 17:59:00,63.4,29.7,29.91,WNW,283,16.0,16.0,28,0.00,,,0.00,392,WeatherCatV1.15B25,2013-05-14 00:59:00,
2013-05-13 18:04:00,63.4,29.7,29.91,WNW,297,18.0,18.0,28,0.00,,,0.00,381,WeatherCatV1.15B25,2013-05-14 01:04:00,
2013-05-13 18:09:00,63.4,28.8,29.91,WNW,298,9.0,16.0,27,0.00,,,0.00,359,WeatherCatV1.15B25,2013-05-14 01:09:00,
2013-05-13 18:14:00,63.4,29.7,29.91,NW,308,10.0,11.0,28,0.00,,,0.00,323,WeatherCatV1.15B25,2013-05-14 01:14:00,
2013-05-13 18:19:00,63.4,27.9,29.91,WNW,298,11.0,18.0,26,0.00,,,0.00,301,WeatherCatV1.15B25,2013-05-14 01:19:00,
2013-05-13 18:24:00,63.5,29.8,29.91,WNW,288,15.0,15.0,28,0.00,,,0.00,309,WeatherCatV1.15B25,2013-05-14 01:24:00,
2013-05-13 18:29:00,63.5,28.9,29.90,WNW,288,7.0,11.0,27,0.00,,,0.00,288,WeatherCatV1.15B25,2013-05-14 01:29:00,
2013-05-13 18:34:00,63.5,28.9,29.90,WNW,288,15.0,16.0,27,0.00,,,0.00,269,WeatherCatV1.15B25,2013-05-14 01:34:00,
2013-05-13 18:39:00,63.5,28.9,29.90,West,273,2.0,13.0,27,0.00,,,0.00,253,WeatherCatV1.15B25,2013-05-14 01:39:00,
2013-05-13 18:44:00,63.5,28.0,29.91,WNW,300,17.0,20.0,26,0.00,,,0.00,236,WeatherCatV1.15B25,2013-05-14 01:44:00,
2013-05-13 18:49:00,63.1,27.7,29.91,West,278,15.0,17.0,26,0.00,,,0.00,216,WeatherCatV1.15B25,2013-05-14 01:49:00,
2013-05-13 18:54:00,62.9,28.4,29.91,WNW,293,5.0,18.0,27,0.00,,,0.00,199,WeatherCatV1.15B25,2013-05-14 01:54:00,
2013-05-13 18:59:00,62.7,28.2,29.90,NW,313,5.0,7.0,27,0.00,,,0.00,179,WeatherCatV1.15B25,2013-05-14 01:59:00,
2013-05-13 19:04:00,62.6,28.2,29.90,WNW,299,10.0,16.0,27,0.00,,,0.00,162,WeatherCatV1.15B25,2013-05-14 02:04:00,
2013-05-13 19:09:00,62.3,27.0,29.90,NW,324,9.0,16.0,26,0.00,,,0.00,144,WeatherCatV1.15B25,2013-05-14 02:09:00,
2013-05-13 19:14:00,62.1,26.8,29.90,West,267,14.0,16.0,26,0.00,,,0.00,130,WeatherCatV1.15B25,2013-05-14 02:14:00,
2013-05-13 19:19:00,62.0,26.7,29.90,WNW,288,9.0,15.0,26,0.00,,,0.00,116,WeatherCatV1.15B25,2013-05-14 02:19:00,
2013-05-13 19:24:00,62.0,27.6,29.90,NW,310,16.0,16.0,27,0.00,,,0.00,100,WeatherCatV1.15B25,2013-05-14 02:24:00,
2013-05-13 19:29:00,61.6,27.3,29.90,NW,307,15.0,15.0,27,0.00,,,0.00,86,WeatherCatV1.15B25,2013-05-14 02:29:00,
2013-05-13 19:34:00,61.5,27.2,29.90,NW,312,5.0,11.0,27,0.00,,,0.00,74,WeatherCatV1.15B25,2013-05-14 02:34:00,
2013-05-13 19:39:00,61.2,27.0,29.90,WSW,247,6.0,13.0,27,0.00,,,0.00,23,WeatherCatV1.15B25,2013-05-14 02:39:00,
2013-05-13 19:44:00,60.9,26.7,29.92,West,259,3.0,11.0,27,0.00,,,0.00,44,WeatherCatV1.15B25,2013-05-14 02:44:00,
2013-05-13 19:49:00,60.5,26.4,29.92,West,265,7.0,12.0,27,0.00,,,0.00,12,WeatherCatV1.15B25,2013-05-14 02:49:00,
2013-05-13 19:54:00,60.1,26.0,29.92,NW,314,10.0,13.0,27,0.00,,,0.00,9,WeatherCatV1.15B25,2013-05-14 02:54:00,
2013-05-13 19:59:00,59.8,26.6,29.92,West,262,6.0,9.0,28,0.00,,,0.00,5,WeatherCatV1.15B25,2013-05-14 02:59:00,
2013-05-13 20:04:00,59.5,26.4,29.92,NW,311,9.0,13.0,28,0.00,,,0.00,0,WeatherCatV1.15B25,2013-05-14 03:04:00,
2013-05-13 20:09:00,59.0,25.9,29.92,West,278,6.0,9.0,28,0.00,,,0.00,0,WeatherCatV1.15B25,2013-05-14 03:09:00,
2013-05-13 20:14:00,58.7,25.7,29.91,WNW,298,5.0,10.0,28,0.00,,,0.00,0,WeatherCatV1.15B25,2013-05-14 03:14:00,
2013-05-13 20:19:00,58.4,25.4,29.91,NW,314,5.0,10.0,28,0.00,,,0.00,0,WeatherCatV1.15B25,2013-05-14 03:19:00,
2013-05-13 20:24:00,58.1,26.0,29.91,NW,314,3.0,7.0,29,0.00,,,0.00,0,WeatherCatV1.15B25,2013-05-14 03:24:00,
2013-05-13 20:29:00,57.8,26.6,29.91,NNW,332,1.0,6.0,30,0.00,,,0.00,0,WeatherCatV1.15B25,2013-05-14 03:29:00,
2013-05-13 20:34:00,57.3,26.9,29.91,NNW,347,3.0,5.0,31,0.00,,,0.00,0,WeatherCatV1.15B25,2013-05-14 03:34:00,
2013-05-13 20:39:00,57.2,26.8,29.91,NW,305,2.0,9.0,31,0.00,,,0.00,0,WeatherCatV1.15B25,2013-05-14 03:39:00,
2013-05-13 20:44:00,57.0,27.4,29.92,NW,308,0.0,9.0,32,0.00,,,0.00,0,WeatherCatV1.15B25,2013-05-14 03:44:00,
2013-05-13 20:49:00,56.9,28.1,29.92,WNW,288,3.0,3.0,33,0.00,,,0.00,0,WeatherCatV1.15B25,2013-05-14 03:49:00,
2013-05-13 20:54:00,56.6,27.8,29.92,WSW,250,2.0,2.0,33,0.00,,,0.00,0,WeatherCatV1.15B25,2013-05-14 03:54:00,
2013-05-13 20:59:00,56.5,29.2,29.92,West,278,0.0,2.0,35,0.00,,,0.00,0,WeatherCatV1.15B25,2013-05-14 03:59:00,
2013-05-13 21:01:00,56.3,28.3,29.92,West,269,2.0,3.0,34,0.00,,,0.00,0,WeatherCatV1.15B25,2013-05-14 04:01:00,
2013-05-13 21:02:00,56.3,28.3,29.92,West,269,4.0,4.0,34,0.00,,,0.00,0,WeatherCatV1.15B25,2013-05-14 04:02:00,
2013-05-13 21:03:00,56.2,28.2,29.92,West,269,0.0,5.0,34,0.00,,,0.00,0,WeatherCatV1.15B25,2013-05-14 04:03:00,
2013-05-13 21:08:00,55.9,28.7,29.92,West,268,3.0,3.0,35,0.00,,,0.00,0,WeatherCatV1.15B25,2013-05-14 04:08:00,
2013-05-13 21:10:00,55.7,28.5,29.92,WNW,288,4.0,6.0,35,0.00,,,0.00,0,WeatherCatV1.15B25,2013-05-14 04:10:00,
2013-05-13 21:15:00,55.6,28.4,29.90,WNW,301,3.0,5.0,35,0.00,,,0.00,0,WeatherCatV1.15B25,2013-05-14 04:15:00,
2013-05-13 21:20:00,55.6,28.4,29.90,WNW,293,4.0,6.0,35,0.00,,,0.00,0,WeatherCatV1.15B25,2013-05-14 04:20:00,
2013-05-13 21:25:00,55.4,28.9,29.90,NW,326,3.0,4.0,36,0.00,,,0.00,0,WeatherCatV1.15B25,2013-05-14 04:25:00,
2013-05-13 21:30:00,55.4,28.9,29.91,NNW,345,4.0,6.0,36,0.00,,,0.00,0,WeatherCatV1.15B25,2013-05-14 04:30:00,
2013-05-13 21:35:00,55.3,28.8,29.91,North,352,3.0,4.0,36,0.00,,,0.00,0,WeatherCatV1.15B25,2013-05-14 04:35:00,
2013-05-13 21:40:00,55.1,29.3,29.91,NNW,338,4.0,7.0,37,0.00,,,0.00,0,WeatherCatV1.15B25,2013-05-14 04:40:00,
2013-05-13 21:45:00,55.1,29.3,29.91,NNW,347,2.0,7.0,37,0.00,,,0.00,0,WeatherCatV1.15B25,2013-05-14 04:45:00,
2013-05-13 21:50:00,55.1,29.3,29.91,NNW,346,5.0,9.0,37,0.00,,,0.00,0,WeatherCatV1.15B25,2013-05-14 04:50:00,
2013-05-13 21:55:00,55.1,29.3,29.91,NNW,327,1.0,4.0,37,0.00,,,0.00,0,WeatherCatV1.15B25,2013-05-14 04:55:00,
2013-05-13 22:00:00,55.1,29.3,29.91,NNW,340,3.0,5.0,37,0.00,,,0.00,0,WeatherCatV1.15B25,2013-05-14 05:00:00,
2013-05-13 22:05:00,54.8,29.0,29.91,NNW,347,4.0,4.0,37,0.00,,,0.00,0,WeatherCatV1.15B25,2013-05-14 05:05:00,
2013-05-13 22:10:00,54.7,28.9,29.91,North,352,5.0,6.0,37,0.00,,,0.00,0,WeatherCatV1.15B25,2013-05-14 05:10:00,
2013-05-13 22:15:00,54.4,28.7,29.90,North,355,3.0,4.0,37,0.00,,,0.00,0,WeatherCatV1.15B25,2013-05-14 05:15:00,
2013-05-13 22:20:00,54.2,28.5,29.90,North,353,3.0,4.0,37,0.00,,,0.00,0,WeatherCatV1.15B25,2013-05-14 05:20:00,
2013-05-13 22:25:00,54.4,28.7,29.90,North,4,6.0,9.0,37,0.00,,,0.00,0,WeatherCatV1.15B25,2013-05-14 05:25:00,
2013-05-13 22:30:00,54.7,28.3,29.89,North,5,6.0,8.0,36,0.00,,,0.00,0,WeatherCatV1.15B25,2013-05-14 05:30:00,
2013-05-13 22:35:00,55.0,28.5,29.89,North,8,5.0,6.0,36,0.00,,,0.00,0,WeatherCatV1.15B25,2013-05-14 05:35:00,
2013-05-13 22:40:00,55.0,28.5,29.89,North,353,6.0,7.0,36,0.00,,,0.00,0,WeatherCatV1.15B25,2013-05-14 05:40:00,
2013-05-13 22:45:00,54.8,28.4,29.90,North,353,4.0,5.0,36,0.00,,,0.00,0,WeatherCatV1.15B25,2013-05-14 05:45:00,
2013-05-13 22:50:00,54.5,28.8,29.90,North,358,3.0,4.0,37,0.00,,,0.00,0,WeatherCatV1.15B25,2013-05-14 05:50:00,
2013-05-13 22:55:00,54.4,28.7,29.90,North,357,3.0,5.0,37,0.00,,,0.00,0,WeatherCatV1.15B25,2013-05-14 05:55:00,
2013-05-13 23:00:00,54.4,28.7,29.89,North,1,0.0,3.0,37,0.00,,,0.00,0,WeatherCatV1.15B25,2013-05-14 06:00:00,
2013-05-13 23:05:00,54.4,28.7,29.89,North,7,7.0,7.0,37,0.00,,,0.00,0,WeatherCatV1.15B25,2013-05-14 06:05:00,
2013-05-13 23:10:00,54.2,28.5,29.89,NNE,14,2.0,6.0,37,0.00,,,0.00,0,WeatherCatV1.15B25,2013-05-14 06:10:00,
2013-05-13 23:15:00,54.1,28.4,29.89,North,356,5.0,5.0,37,0.00,,,0.00,0,WeatherCatV1.15B25,2013-05-14 06:15:00,
2013-05-13 23:20:00,54.1,27.7,29.89,NE,35,0.0,6.0,36,0.00,,,0.00,0,WeatherCatV1.15B25,2013-05-14 06:20:00,
2013-05-13 23:25:00,54.1,27.1,29.89,North,355,5.0,5.0,35,0.00,,,0.00,0,WeatherCatV1.15B25,2013-05-14 06:25:00,
2013-05-13 23:30:00,53.9,26.9,29.88,NNW,341,5.0,5.0,35,0.00,,,0.00,0,WeatherCatV1.15B25,2013-05-14 06:30:00,
2013-05-13 23:35:00,53.9,27.6,29.88,North,349,2.0,6.0,36,0.00,,,0.00,0,WeatherCatV1.15B25,2013-05-14 06:35:00,
2013-05-13 23:40:00,53.5,27.9,29.88,WNW,288,6.0,8.0,37,0.00,,,0.00,0,WeatherCatV1.15B25,2013-05-14 06:40:00,
2013-05-13 23:45:00,53.3,29.0,29.88,WNW,283,0.0,3.0,39,0.00,,,0.00,0,WeatherCatV1.15B25,2013-05-14 06:45:00,
2013-05-13 23:50:00,53.1,30.0,29.88,WNW,293,2.0,4.0,41,0.00,,,0.00,0,WeatherCatV1.15B25,2013-05-14 06:50:00,
2013-05-13 23:55:00,52.9,30.4,29.88,WNW,293,3.0,3.0,42,0.00,,,0.00,0,WeatherCatV1.15B25,2013-05-14 06:55:00,